Terminal Aerodrome Forecast
Issued by NWS

Home | Current Version | Previous Version | Text Only | Print | Product List | Glossary On
Versions: 1 2 3 4 5 6 7 8 9 10 11 12 13 14 15 16 17 18 19 20 21 22 23 24 25 26 27 28 29 30 31 32 33 34 35 36 37 38
000
FTUS43 KDLH 011500 AAA
TAFBRD
TAF AMD
KBRD 011516Z 0115/0212 16010KT 4SM BR VCSH OVC006
     FM011900 15008KT P6SM BKN015 OVC040
      TEMPO 0122/0202 6SM -SHRA SCT015 BKN040
     FM020400 VRB04KT 6SM BR SCT005 BKN025
      TEMPO 0204/0208 3SM BR BKN005 OVC025=

USA.gov is the U.S. government's official web portal to all federal, state and local government web resources and services.